Time;durP1;ratioP1;P1;durP2;ratioP2;P2;SDS_P1;SDS_P2;PMS_P1;PMS_P2;Temp;Humidity;BMP_temperature;BMP_pressure;BME280_temperature;BME280_humidity;BME280_pressure;Samples;Min_cycle;Max_cycle;Signal;HPM_P1;HPM_P2
2023/06/05 00:01:35;;;;;;;5.90;2.30;;;;;;;7.98;68.87;101164.33;102538;278;113244;-55
2023/06/05 00:04:15;;;;;;;4.80;2.30;;;;;;;7.94;68.95;101164.19;102545;278;96524;-57
2023/06/05 00:06:55;;;;;;;7.20;2.30;;;;;;;7.91;68.92;101167.35;102545;278;95925;-56
2023/06/05 00:09:34;;;;;;;3.40;2.20;;;;;;;7.88;69.15;101167.09;102567;278;121474;-54
2023/06/05 00:12:12;;;;;;;6.20;2.20;;;;;;;7.86;69.27;101166.90;102605;278;103120;-54
2023/06/05 00:14:50;;;;;;;4.80;2.00;;;;;;;7.85;69.49;101161.82;102595;278;113293;-54
2023/06/05 00:17:28;;;;;;;5.00;2.30;;;;;;;7.84;69.53;101164.33;102550;278;94892;-53
2023/06/05 00:20:09;;;;;;;5.40;2.60;;;;;;;7.81;69.62;101162.48;102596;278;97718;-55
2023/06/05 00:22:48;;;;;;;4.30;2.60;;;;;;;7.77;69.83;101163.95;102578;267;120962;-54
2023/06/05 00:25:27;;;;;;;4.20;2.20;;;;;;;7.73;69.83;101164.29;102534;278;105319;-56
2023/06/05 00:28:08;;;;;;;5.90;2.50;;;;;;;7.68;69.98;101165.48;102612;278;114236;-54
2023/06/05 00:30:47;;;;;;;6.20;2.60;;;;;;;7.66;70.13;101166.06;102546;278;96662;-54
2023/06/05 00:33:33;;;;;;;4.80;3.20;;;;;;;7.65;70.15;101168.30;102538;278;97979;-51
2023/06/05 00:36:14;;;;;;;3.90;2.30;;;;;;;7.64;70.24;101164.15;102524;278;120964;-52
2023/06/05 00:38:51;;;;;;;4.90;2.50;;;;;;;7.62;70.29;101163.27;102552;278;105771;-58
2023/06/05 00:41:34;;;;;;;4.70;2.40;;;;;;;7.57;70.49;101162.67;102415;280;115902;-58
2023/06/05 00:44:18;;;;;;;4.60;2.50;;;;;;;7.54;70.42;101160.81;102520;278;95317;-56
2023/06/05 00:46:56;;;;;;;5.30;2.60;;;;;;;7.52;70.42;101158.37;102537;278;96320;-57
2023/06/05 00:49:35;;;;;;;4.30;2.70;;;;;;;7.48;70.58;101164.64;102571;278;122147;-54
2023/06/05 00:52:13;;;;;;;7.00;3.00;;;;;;;7.48;70.65;101159.30;102541;278;106001;-55
2023/06/05 00:54:55;;;;;;;5.50;3.30;;;;;;;7.47;70.89;101158.82;102606;278;113749;-53
2023/06/05 00:57:38;;;;;;;7.20;4.00;;;;;;;7.45;70.86;101158.83;102563;279;92792;-54
2023/06/05 01:00:17;;;;;;;9.60;4.10;;;;;;;7.41;70.98;101156.42;102681;278;97573;-57
2023/06/05 01:02:58;;;;;;;7.60;3.90;;;;;;;7.37;71.01;101158.95;102646;278;120292;-54
2023/06/05 01:05:37;;;;;;;7.30;4.60;;;;;;;7.34;71.10;101159.05;102574;278;105625;-57
2023/06/05 01:08:18;;;;;;;7.50;4.10;;;;;;;7.31;71.09;101157.92;102583;279;113642;-54
2023/06/05 01:10:57;;;;;;;7.20;4.10;;;;;;;7.26;71.24;101161.09;102556;278;97005;-52
2023/06/05 01:13:36;;;;;;;7.10;4.20;;;;;;;7.25;71.36;101159.73;102551;279;97585;-55
2023/06/05 01:16:15;;;;;;;5.00;3.60;;;;;;;7.24;71.37;101158.20;102478;279;121268;-55
2023/06/05 01:19:00;;;;;;;5.50;3.00;;;;;;;7.22;71.52;101158.43;102494;278;105778;-53
2023/06/05 01:21:40;;;;;;;6.20;3.50;;;;;;;7.27;71.64;101156.87;102509;278;113222;-54
2023/06/05 01:24:22;;;;;;;8.00;3.40;;;;;;;7.32;71.62;101157.64;102518;279;93576;-58
2023/06/05 01:27:11;;;;;;;6.00;3.30;;;;;;;7.31;71.57;101161.50;102584;279;97351;-58
2023/06/05 01:30:00;;;;;;;6.60;3.40;;;;;;;7.25;71.64;101158.70;102527;279;122486;-54
2023/06/05 01:32:47;;;;;;;8.80;4.60;;;;;;;7.19;71.67;101162.69;102522;279;105223;-54
2023/06/05 01:35:34;;;;;;;8.00;5.00;;;;;;;7.13;71.81;101163.83;102507;279;114309;-57
2023/06/05 01:38:15;;;;;;;7.70;4.60;;;;;;;7.08;71.87;101163.23;102551;278;96569;-53
2023/06/05 01:40:52;;;;;;;10.70;4.60;;;;;;;7.05;71.92;101165.43;102624;279;97769;-53
2023/06/05 01:43:33;;;;;;;6.80;4.90;;;;;;;7.04;71.96;101162.53;102628;278;120408;-57
2023/06/05 01:46:12;;;;;;;8.20;4.10;;;;;;;7.00;72.05;101162.74;102605;279;104243;-57
2023/06/05 01:48:51;;;;;;;9.20;4.90;;;;;;;6.97;72.05;101163.43;102567;278;114402;-54
2023/06/05 01:51:32;;;;;;;8.30;4.20;;;;;;;6.94;72.12;101162.40;102594;278;95143;-54
2023/06/05 01:54:15;;;;;;;6.70;3.70;;;;;;;6.90;72.04;101163.94;102573;278;97279;-55
2023/06/05 01:56:52;;;;;;;4.40;3.10;;;;;;;6.87;72.10;101166.02;102542;278;122695;-54
2023/06/05 01:59:31;;;;;;;8.30;3.70;;;;;;;6.83;72.22;101163.55;102564;279;105670;-58
2023/06/05 02:02:07;;;;;;;5.80;3.60;;;;;;;6.78;72.35;101163.30;102600;278;112306;-58
2023/06/05 02:04:47;;;;;;;8.40;3.60;;;;;;;6.79;72.49;101163.23;102529;275;92235;-53
2023/06/05 02:07:33;;;;;;;7.50;4.20;;;;;;;6.79;72.67;101162.81;102399;279;96747;-54
2023/06/05 02:10:13;;;;;;;7.00;3.90;;;;;;;6.79;72.75;101160.84;102614;278;121326;-58
2023/06/05 02:13:03;;;;;;;6.10;4.50;;;;;;;6.76;72.78;101161.34;102549;278;105661;-58
2023/06/05 02:15:44;;;;;;;6.10;4.40;;;;;;;6.72;72.89;101159.87;102495;278;113656;-52
2023/06/05 02:18:25;;;;;;;7.00;5.10;;;;;;;6.71;72.91;101156.97;102545;278;95889;-53
2023/06/05 02:21:03;;;;;;;6.40;3.90;;;;;;;6.68;73.03;101155.34;102556;278;98054;-54
2023/06/05 02:23:42;;;;;;;6.90;4.20;;;;;;;6.66;73.06;101159.44;102492;279;121292;-54
2023/06/05 02:26:21;;;;;;;7.30;4.40;;;;;;;6.66;73.22;101157.52;102532;279;105584;-55
2023/06/05 02:29:07;;;;;;;6.70;4.00;;;;;;;6.67;73.33;101157.71;102518;278;112718;-54
2023/06/05 02:31:45;;;;;;;8.10;3.90;;;;;;;6.67;73.28;101154.19;102411;279;94863;-55
2023/06/05 02:34:33;;;;;;;7.40;4.50;;;;;;;6.68;73.35;101158.55;102535;279;97451;-56
2023/06/05 02:37:13;;;;;;;7.00;4.50;;;;;;;6.67;73.59;101155.90;102588;278;121328;-57
2023/06/05 02:39:48;;;;;;;6.10;4.00;;;;;;;6.68;73.59;101159.77;102613;278;105224;-55
2023/06/05 02:42:25;;;;;;;8.70;3.80;;;;;;;6.70;73.77;101158.73;102563;278;115000;-55
2023/06/05 02:45:02;;;;;;;;;;;;;;;6.72;73.75;101154.59;102620;279;96461;-58
2023/06/05 02:47:42;;;;;;;10.40;4.00;;;;;;;6.74;73.87;101157.20;102632;278;96175;-58
2023/06/05 02:50:18;;;;;;;8.70;3.80;;;;;;;6.80;74.02;101156.29;102567;278;121995;-54
2023/06/05 02:52:58;;;;;;;6.60;4.10;;;;;;;6.85;73.94;101158.17;102538;278;106271;-56
2023/06/05 02:55:46;;;;;;;4.80;3.70;;;;;;;6.89;73.98;101158.67;102527;278;115276;-54
2023/06/05 02:58:35;;;;;;;7.00;3.80;;;;;;;6.92;73.98;101156.52;102520;278;96242;-58
2023/06/05 03:01:14;;;;;;;6.60;3.90;;;;;;;6.96;74.19;101161.02;102608;278;97443;-58
2023/06/05 03:03:48;;;;;;;6.30;3.70;;;;;;;6.98;74.26;101162.44;102594;275;121450;-53
2023/06/05 03:06:33;;;;;;;7.40;4.00;;;;;;;7.04;74.26;101162.16;102546;278;105305;-54
2023/06/05 03:09:16;;;;;;;7.00;4.00;;;;;;;7.12;74.33;101160.34;102399;279;115137;-56
2023/06/05 03:11:53;;;;;;;5.50;3.40;;;;;;;7.22;74.32;101161.15;102530;278;92763;-57
2023/06/05 03:14:30;;;;;;;5.80;3.70;;;;;;;7.30;74.29;101160.14;102573;278;97274;-55
2023/06/05 03:17:14;;;;;;;6.40;3.60;;;;;;;7.41;74.36;101161.58;102552;278;122715;-55
2023/06/05 03:19:49;;;;;;;7.10;3.30;;;;;;;7.51;74.37;101162.67;102571;278;106287;-58
2023/06/05 03:22:34;;;;;;;7.30;3.70;;;;;;;7.62;74.38;101161.65;102519;278;114104;-57
2023/06/05 03:25:14;;;;;;;4.40;3.00;;;;;;;7.77;74.32;101164.23;102494;278;96401;-54
2023/06/05 03:27:54;;;;;;;5.70;3.40;;;;;;;8.19;74.21;101162.73;102602;278;97705;-54
2023/06/05 03:30:38;;;;;;;5.00;3.50;;;;;;;9.43;73.42;101160.73;102537;279;121290;-53
2023/06/05 03:33:17;;;;;;;9.00;3.90;;;;;;;11.11;71.65;101152.02;102523;279;105112;-56
2023/06/05 03:35:57;;;;;;;7.10;3.70;;;;;;;12.74;69.66;101152.87;102303;279;114158;-56
2023/06/05 03:38:32;;;;;;;6.00;3.40;;;;;;;14.16;67.71;101151.21;102424;279;94508;-54
2023/06/05 03:41:14;;;;;;;5.20;3.50;;;;;;;15.33;65.79;101144.13;102512;279;98270;-55
2023/06/05 03:43:54;;;;;;;6.20;3.80;;;;;;;16.45;63.73;101145.31;102526;279;122295;-55
2023/06/05 03:46:37;;;;;;;4.00;3.00;;;;;;;17.35;62.04;101143.02;102510;279;105383;-55
2023/06/05 03:49:16;;;;;;;4.70;3.30;;;;;;;18.21;59.77;101144.73;102521;279;113627;-58
2023/06/05 03:52:01;;;;;;;4.20;2.90;;;;;;;19.07;57.43;101140.42;102526;279;93486;-58
2023/06/05 03:54:44;;;;;;;5.50;3.10;;;;;;;19.84;55.43;101141.30;102537;279;98198;-57
2023/06/05 03:57:24;;;;;;;6.80;3.50;;;;;;;20.59;53.65;101139.90;102494;279;122166;-55
2023/06/05 04:00:09;;;;;;;5.30;3.20;;;;;;;21.30;51.76;101140.39;102559;279;105429;-57
2023/06/05 04:02:47;;;;;;;5.30;3.70;;;;;;;21.96;50.12;101143.11;102530;279;113885;-57
2023/06/05 04:05:29;;;;;;;7.60;3.20;;;;;;;22.53;48.81;101143.34;102525;279;94576;-57
2023/06/05 04:08:09;;;;;;;5.20;3.10;;;;;;;23.12;47.78;101140.88;102441;279;97352;-59
2023/06/05 04:10:49;;;;;;;5.20;3.50;;;;;;;23.74;46.35;101140.50;102558;279;122718;-58
2023/06/05 04:13:32;;;;;;;5.00;3.60;;;;;;;24.24;45.27;101141.29;102585;279;104904;-57
2023/06/05 04:16:16;;;;;;;7.70;3.50;;;;;;;24.60;44.26;101140.53;102584;279;115663;-57
2023/06/05 04:19:01;;;;;;;5.30;3.10;;;;;;;25.00;43.30;101136.16;102547;279;94652;-57
2023/06/05 04:21:41;;;;;;;6.90;3.50;;;;;;;24.51;42.36;101141.02;102574;279;97077;-57
2023/06/05 04:24:21;;;;;;;7.80;3.80;;;;;;;23.15;42.82;101144.92;102587;279;121331;-54
2023/06/05 04:27:00;;;;;;;6.00;3.30;;;;;;;21.71;43.76;101155.58;102546;279;105472;-54
2023/06/05 04:29:44;;;;;;;7.90;3.80;;;;;;;20.93;44.00;101155.15;102530;279;115098;-58
2023/06/05 04:32:25;;;;;;;9.00;4.60;;;;;;;19.85;45.36;101161.63;102459;279;92474;-56
2023/06/05 04:35:01;;;;;;;10.90;4.50;;;;;;;19.70;46.11;101162.23;102403;279;96576;-56
2023/06/05 04:37:39;;;;;;;15.10;4.60;;;;;;;19.16;46.74;101165.19;102526;279;119962;-55
2023/06/05 04:40:14;;;;;;;38.20;6.80;;;;;;;18.45;47.82;101170.35;102560;279;105003;-55
2023/06/05 04:42:52;;;;;;;40.90;8.50;;;;;;;18.11;48.64;101174.41;102484;279;114815;-56
2023/06/05 04:45:35;;;;;;;38.50;7.90;;;;;;;18.76;49.02;101171.27;102509;279;95161;-56
2023/06/05 04:48:27;;;;;;;31.40;7.60;;;;;;;20.67;48.26;101168.14;102535;279;98064;-58
2023/06/05 04:51:02;;;;;;;43.10;7.70;;;;;;;22.65;46.65;101164.14;102520;279;122346;-59
2023/06/05 04:53:42;;;;;;;39.30;8.10;;;;;;;23.89;44.69;101159.38;102545;279;104410;-54
2023/06/05 04:56:28;;;;;;;44.20;8.20;;;;;;;25.06;43.02;101158.97;102536;279;113328;-56
2023/06/05 04:59:09;;;;;;;52.00;8.50;;;;;;;26.15;41.78;101158.79;102537;279;94229;-58
2023/06/05 05:01:46;;;;;;;35.40;7.70;;;;;;;27.15;40.37;101149.01;102596;279;98523;-58
2023/06/05 05:04:24;;;;;;;46.40;9.60;;;;;;;28.02;38.45;101147.64;102591;279;120536;-60
2023/06/05 05:07:05;;;;;;;42.90;8.30;;;;;;;28.78;37.76;101152.89;102646;279;104706;-60
2023/06/05 05:09:46;;;;;;;42.30;9.60;;;;;;;29.74;36.33;101151.13;102628;279;114111;-60
2023/06/05 05:12:25;;;;;;;25.20;5.90;;;;;;;30.32;35.19;101152.11;102593;279;94570;-59
2023/06/05 05:15:03;;;;;;;17.30;4.90;;;;;;;30.71;34.04;101149.53;102587;279;96665;-60
2023/06/05 05:17:41;;;;;;;14.70;5.00;;;;;;;31.12;32.85;101150.15;102581;279;121009;-60
2023/06/05 05:20:22;;;;;;;14.50;4.10;;;;;;;31.71;32.18;101145.46;102529;279;103797;-58
2023/06/05 05:23:07;;;;;;;13.80;4.30;;;;;;;32.21;30.77;101141.13;102558;279;112009;-57
2023/06/05 05:25:45;;;;;;;14.60;4.10;;;;;;;32.79;30.60;101145.42;102511;279;94009;-57
2023/06/05 05:28:21;;;;;;;8.60;4.20;;;;;;;33.26;29.44;101143.83;102572;279;97466;-55
2023/06/05 05:31:00;;;;;;;12.30;4.20;;;;;;;33.45;28.55;101139.98;102544;291;121724;-55
2023/06/05 05:33:34;;;;;;;14.80;4.60;;;;;;;33.53;27.96;101144.14;102565;279;106013;-56
2023/06/05 05:36:14;;;;;;;13.70;4.50;;;;;;;33.67;27.55;101145.29;102490;279;114432;-57
2023/06/05 05:38:58;;;;;;;9.80;3.60;;;;;;;34.00;27.04;101145.83;102525;279;94435;-60
2023/06/05 05:41:36;;;;;;;11.50;4.00;;;;;;;34.31;26.55;101143.27;102598;279;97432;-55
2023/06/05 05:44:13;;;;;;;9.70;3.40;;;;;;;34.47;26.26;101139.57;102552;279;122085;-58
2023/06/05 05:46:51;;;;;;;6.70;2.00;;;;;;;34.89;25.99;101141.01;102609;279;104314;-59
2023/06/05 05:49:26;;;;;;;4.30;2.00;;;;;;;35.36;24.27;101144.85;102094;279;713411;-59
2023/06/05 05:52:06;;;;;;;2.50;1.40;;;;;;;35.22;24.04;101141.80;102457;279;93442;-59
2023/06/05 05:54:48;;;;;;;6.10;2.20;;;;;;;35.70;23.10;101139.37;102597;279;98538;-55
2023/06/05 05:57:29;;;;;;;3.90;1.80;;;;;;;36.03;22.74;101139.86;102562;279;121683;-55
2023/06/05 06:00:13;;;;;;;4.30;1.50;;;;;;;36.34;21.96;101140.42;102594;279;105777;-56
2023/06/05 06:02:52;;;;;;;7.80;1.70;;;;;;;36.25;21.67;101138.55;102500;279;113771;-56
2023/06/05 06:05:37;;;;;;;4.50;1.30;;;;;;;36.35;21.71;101143.36;102460;279;95131;-59
2023/06/05 06:08:17;;;;;;;4.80;1.50;;;;;;;36.58;21.37;101143.77;102420;279;98467;-57
2023/06/05 06:10:51;;;;;;;3.50;1.20;;;;;;;36.99;20.96;101142.92;102547;279;122245;-57
2023/06/05 06:13:27;;;;;;;5.10;1.60;;;;;;;37.41;20.24;101142.25;102511;279;106413;-57
2023/06/05 06:16:03;;;;;;;5.00;1.80;;;;;;;37.86;19.89;101145.78;102503;279;112910;-57
2023/06/05 06:18:38;;;;;;;5.60;1.80;;;;;;;37.73;19.28;101145.10;102492;279;93299;-59
2023/06/05 06:21:16;;;;;;;5.20;1.80;;;;;;;37.68;18.99;101144.63;102545;279;98693;-57
2023/06/05 06:23:54;;;;;;;9.00;1.60;;;;;;;37.57;19.16;101147.96;102531;279;121066;-57
2023/06/05 06:26:33;;;;;;;4.00;1.90;;;;;;;37.70;18.82;101150.02;102560;279;105029;-58
2023/06/05 06:29:11;;;;;;;4.20;1.50;;;;;;;37.42;19.18;101148.73;102564;279;113351;-57
2023/06/05 06:31:49;;;;;;;6.20;1.60;;;;;;;37.92;18.40;101146.13;102386;279;94841;-58
2023/06/05 06:34:26;;;;;;;3.90;1.40;;;;;;;38.13;17.93;101147.61;102533;279;97732;-58
2023/06/05 06:37:09;;;;;;;4.60;1.50;;;;;;;38.30;18.06;101145.97;102591;279;120900;-58
2023/06/05 06:39:46;;;;;;;5.40;1.90;;;;;;;38.58;17.67;101144.14;102541;279;105192;-57
2023/06/05 06:42:23;;;;;;;3.30;1.10;;;;;;;38.35;17.35;101142.73;102529;279;114516;-57
2023/06/05 06:44:58;;;;;;;2.90;1.20;;;;;;;38.39;17.10;101144.63;102601;279;94849;-58
2023/06/05 06:47:42;;;;;;;2.70;1.30;;;;;;;38.20;17.13;101146.39;102620;279;97468;-58
2023/06/05 06:50:19;;;;;;;2.50;1.20;;;;;;;38.76;16.98;101145.17;102439;279;119471;-56
2023/06/05 06:52:58;;;;;;;1.90;1.10;;;;;;;38.37;16.23;101144.55;102519;279;105009;-56
2023/06/05 06:55:37;;;;;;;2.30;1.00;;;;;;;38.46;16.24;101144.65;102340;279;112585;-58
2023/06/05 06:58:19;;;;;;;4.10;1.40;;;;;;;38.61;16.16;101144.16;102529;279;93558;-60
2023/06/05 07:00:58;;;;;;;3.60;1.30;;;;;;;38.82;16.47;101143.90;102403;279;99331;-60
2023/06/05 07:03:38;;;;;;;3.10;1.30;;;;;;;38.65;16.13;101139.42;102460;279;122709;-57
2023/06/05 07:06:21;;;;;;;3.00;1.20;;;;;;;38.54;16.26;101138.92;102524;278;105184;-58
2023/06/05 07:09:05;;;;;;;4.70;1.40;;;;;;;38.09;16.22;101140.88;102497;278;114110;-58
2023/06/05 07:11:44;;;;;;;4.50;1.70;;;;;;;37.48;16.20;101145.06;102520;278;93422;-57
2023/06/05 07:14:24;;;;;;;1.90;1.00;;;;;;;37.30;16.46;101149.54;102542;278;97489;-56
2023/06/05 07:17:08;;;;;;;3.20;1.40;;;;;;;37.50;16.11;101144.58;102495;278;121191;-56
2023/06/05 07:19:45;;;;;;;3.60;1.50;;;;;;;37.40;16.15;101151.97;102510;278;105952;-58
2023/06/05 07:22:28;;;;;;;3.70;1.30;;;;;;;37.30;16.15;101150.57;102468;278;114421;-59
2023/06/05 07:25:04;;;;;;;;;;;;;;;37.74;16.16;101150.86;102558;278;93657;-55
2023/06/05 07:27:47;;;;;;;2.10;1.20;;;;;;;38.06;16.01;101148.85;102497;278;96845;-55
2023/06/05 07:30:26;;;;;;;3.80;1.50;;;;;;;38.02;15.96;101150.57;102480;278;120814;-57
2023/06/05 07:33:01;;;;;;;2.40;1.40;;;;;;;38.12;15.78;101149.61;102506;278;104859;-57
2023/06/05 07:35:38;;;;;;;3.80;1.40;;;;;;;37.79;15.63;101148.05;102528;278;114864;-56
2023/06/05 07:38:27;;;;;;;2.60;1.40;;;;;;;37.76;15.80;101151.43;102527;278;93603;-60
2023/06/05 07:41:06;;;;;;;3.50;1.30;;;;;;;37.89;16.19;101151.91;102504;278;98254;-60
2023/06/05 07:43:46;;;;;;;3.60;1.40;;;;;;;37.77;15.97;101149.67;102522;278;121334;-53
2023/06/05 07:46:31;;;;;;;2.90;1.50;;;;;;;37.53;15.41;101150.41;102537;278;105565;-54
2023/06/05 07:49:15;;;;;;;5.00;1.60;;;;;;;37.07;15.53;101144.85;102502;278;113275;-57
2023/06/05 07:51:57;;;;;;;4.10;1.80;;;;;;;36.83;15.74;101141.14;102531;278;93760;-57
2023/06/05 07:54:34;;;;;;;3.10;1.50;;;;;;;36.81;16.08;101141.80;102513;278;97938;-56
2023/06/05 07:57:25;;;;;;;5.40;1.60;;;;;;;36.92;16.23;101140.46;102523;278;121598;-55
2023/06/05 08:00:02;;;;;;;4.60;1.50;;;;;;;37.00;16.76;101141.86;102539;278;104437;-59
2023/06/05 08:02:43;;;;;;;4.30;1.50;;;;;;;37.13;15.91;101140.86;102581;278;114420;-56
2023/06/05 08:05:28;;;;;;;3.70;1.50;;;;;;;37.15;16.08;101144.02;102570;278;94584;-59
2023/06/05 08:08:06;;;;;;;3.30;1.40;;;;;;;37.58;15.65;101141.07;102633;278;97024;-55
2023/06/05 08:10:51;;;;;;;3.60;1.50;;;;;;;37.35;15.29;101139.86;102528;278;120982;-55
2023/06/05 08:13:32;;;;;;;3.60;1.50;;;;;;;37.47;15.22;101141.67;102591;278;104602;-56
2023/06/05 08:16:11;;;;;;;3.60;1.20;;;;;;;37.52;14.84;101143.97;102591;278;115033;-57
2023/06/05 08:18:45;;;;;;;2.60;1.50;;;;;;;37.08;15.16;101146.68;102539;278;93909;-55
2023/06/05 08:21:22;;;;;;;2.70;1.50;;;;;;;37.35;14.85;101143.80;102581;278;97498;-56
2023/06/05 08:24:00;;;;;;;3.20;1.20;;;;;;;37.20;15.04;101139.85;102626;278;122304;-56
2023/06/05 08:26:38;;;;;;;3.10;1.40;;;;;;;37.18;15.57;101139.27;102585;278;105750;-56
2023/06/05 08:29:16;;;;;;;2.70;1.20;;;;;;;37.05;15.01;101137.75;102385;278;114203;-58
2023/06/05 08:32:00;;;;;;;2.60;1.20;;;;;;;36.80;14.96;101139.35;102533;278;94003;-58
2023/06/05 08:34:38;;;;;;;2.40;1.70;;;;;;;36.99;14.88;101139.98;102561;278;96696;-56
2023/06/05 08:37:17;;;;;;;2.50;1.30;;;;;;;36.92;14.47;101138.70;102526;278;120310;-57
2023/06/05 08:40:06;;;;;;;2.30;1.20;;;;;;;37.01;14.45;101140.54;102636;278;104877;-60
2023/06/05 08:42:50;;;;;;;2.20;1.30;;;;;;;36.90;14.36;101139.78;102550;278;113334;-59
2023/06/05 08:45:29;;;;;;;4.80;1.50;;;;;;;36.58;14.41;101139.03;102566;278;94208;-57
2023/06/05 08:48:14;;;;;;;5.60;1.50;;;;;;;35.81;14.64;101144.98;102545;278;97718;-60
2023/06/05 08:50:55;;;;;;;2.50;1.30;;;;;;;35.66;15.15;101143.06;102581;278;120862;-60
2023/06/05 08:53:44;;;;;;;3.50;1.10;;;;;;;35.76;15.31;101144.52;102615;278;104188;-56
2023/06/05 08:56:27;;;;;;;3.00;1.30;;;;;;;35.57;14.99;101144.32;102513;278;114980;-56
2023/06/05 08:59:02;;;;;;;2.40;1.10;;;;;;;34.98;15.06;101145.85;102556;278;95069;-61
2023/06/05 09:01:41;;;;;;;2.40;1.10;;;;;;;33.71;15.25;101140.89;102462;275;97309;-63
2023/06/05 09:04:29;;;;;;;2.10;1.20;;;;;;;33.13;16.49;101137.46;102561;278;121038;-56
2023/06/05 09:07:08;;;;;;;3.00;1.30;;;;;;;32.49;16.60;101132.73;102538;278;105840;-57
2023/06/05 09:09:50;;;;;;;2.00;1.60;;;;;;;31.97;16.84;101130.94;102567;278;114919;-55
2023/06/05 09:12:33;;;;;;;3.70;1.20;;;;;;;31.54;17.11;101130.80;102503;278;95498;-54
2023/06/05 09:15:26;;;;;;;2.50;1.30;;;;;;;31.25;17.37;101132.59;102495;278;95363;-57
2023/06/05 09:18:21;;;;;;;3.20;1.30;;;;;;;30.91;18.27;101127.91;102606;275;121714;-67
2023/06/05 09:21:13;;;;;;;3.50;1.30;;;;;;;30.78;18.31;101135.30;102654;278;105985;-67
2023/06/05 09:24:12;;;;;;;2.70;1.30;;;;;;;30.55;18.23;101138.59;102612;278;113841;-64
2023/06/05 09:26:58;;;;;;;3.10;1.40;;;;;;;29.84;18.52;101129.02;102379;278;93804;-64
2023/06/05 09:29:36;;;;;;;3.60;1.30;;;;;;;29.61;18.54;101128.21;102620;278;98172;-67
2023/06/05 09:32:23;;;;;;;4.80;1.40;;;;;;;29.19;18.99;101133.41;102527;278;121602;-66
2023/06/05 09:35:07;;;;;;;4.80;1.30;;;;;;;29.14;19.42;101135.55;102448;278;106667;-67
2023/06/05 09:37:49;;;;;;;2.10;1.20;;;;;;;29.19;19.84;101131.30;102531;279;114420;-66
2023/06/05 09:40:41;;;;;;;5.50;1.30;;;;;;;29.16;19.38;101128.05;102584;278;92349;-65
2023/06/05 09:43:28;;;;;;;3.00;1.30;;;;;;;28.90;19.43;101124.55;102610;278;96717;-64
2023/06/05 09:46:17;;;;;;;2.90;1.50;;;;;;;28.39;19.55;101125.23;102574;278;120582;-64
2023/06/05 09:49:03;;;;;;;3.30;1.10;;;;;;;28.09;19.51;101127.33;102594;278;104438;-67
2023/06/05 09:51:46;;;;;;;4.10;1.30;;;;;;;27.94;20.26;101126.58;102440;278;114562;-68
2023/06/05 09:54:29;;;;;;;3.70;1.40;;;;;;;28.16;20.74;101120.08;102572;278;94419;-66
2023/06/05 09:57:13;;;;;;;2.20;1.30;;;;;;;28.35;20.67;101119.66;102534;279;96375;-67
2023/06/05 09:59:59;;;;;;;2.40;1.20;;;;;;;28.25;20.68;101122.79;102552;278;121367;-64
2023/06/05 10:02:39;;;;;;;2.40;1.40;;;;;;;28.23;20.37;101114.25;102559;278;105069;-64
2023/06/05 10:05:25;;;;;;;4.70;1.60;;;;;;;27.90;20.59;101110.48;102533;278;114210;-65
2023/06/05 10:08:11;;;;;;;2.50;1.70;;;;;;;28.06;20.76;101111.15;102537;279;94646;-62
2023/06/05 10:10:49;;;;;;;2.90;1.50;;;;;;;28.14;21.11;101107.92;102577;279;98131;-63
2023/06/05 10:13:37;;;;;;;4.20;1.30;;;;;;;28.26;20.97;101104.23;102633;279;121835;-68
2023/06/05 10:16:20;;;;;;;3.00;1.30;;;;;;;28.33;21.05;101095.71;102906;279;105856;-68
2023/06/05 10:19:04;;;;;;;2.60;1.30;;;;;;;28.37;21.12;101091.90;102753;279;113599;-64
2023/06/05 10:21:50;;;;;;;5.60;1.30;;;;;;;28.17;21.02;101092.00;102539;279;95073;-64
2023/06/05 10:24:35;;;;;;;3.60;1.40;;;;;;;28.14;22.24;101088.86;102432;279;97816;-63
2023/06/05 10:27:58;;;;;;;4.60;1.60;;;;;;;28.12;22.14;101091.48;102527;279;120606;-64
2023/06/05 10:31:32;;;;;;;5.60;1.60;;;;;;;28.12;21.97;101090.65;102362;279;105000;-63
2023/06/05 10:34:48;;;;;;;3.90;1.90;;;;;;;28.24;22.43;101092.17;102653;279;114587;-68
2023/06/05 10:37:58;;;;;;;3.00;1.40;;;;;;;28.20;21.95;101094.55;102767;279;93340;-68
2023/06/05 10:40:40;;;;;;;4.10;1.40;;;;;;;27.91;21.86;101091.64;102830;279;95846;-69
2023/06/05 10:43:34;;;;;;;3.30;2.00;;;;;;;27.86;21.53;101089.68;102829;279;121891;-64
2023/06/05 10:46:36;;;;;;;2.50;1.30;;;;;;;27.82;21.48;101087.92;102443;279;105422;-64
2023/06/05 10:49:19;;;;;;;4.00;1.60;;;;;;;27.33;21.24;101084.92;102549;279;113918;-58
2023/06/05 10:52:03;;;;;;;2.30;1.30;;;;;;;27.08;21.67;101081.12;102545;279;94081;-57
2023/06/05 10:54:59;;;;;;;;;;;;;;;26.83;21.45;101074.80;102548;279;96387;-59
2023/06/05 10:58:07;;;;;;;4.00;1.50;;;;;;;26.61;21.86;101079.30;102545;279;121803;-59
2023/06/05 11:01:18;;;;;;;1.80;1.20;;;;;;;26.70;22.24;101076.80;102548;279;104328;-55
2023/06/05 11:04:02;;;;;;;2.10;1.30;;;;;;;26.72;22.35;101077.34;102520;279;114442;-56
2023/06/05 11:07:06;;;;;;;2.10;1.60;;;;;;;26.82;22.63;101067.94;102574;278;94053;-56
2023/06/05 11:10:07;;;;;;;3.40;1.40;;;;;;;26.90;23.06;101066.37;102555;278;98049;-56
2023/06/05 11:13:05;;;;;;;2.60;1.30;;;;;;;26.99;22.86;101066.40;102563;278;120824;-56
2023/06/05 11:15:45;;;;;;;4.80;1.20;;;;;;;26.93;22.57;101062.20;102558;279;104456;-54
2023/06/05 11:18:39;;;;;;;2.40;1.60;;;;;;;26.95;22.94;101065.24;102579;266;114257;-56
2023/06/05 11:21:47;;;;;;;5.30;2.10;;;;;;;26.82;22.21;101063.71;102537;278;92789;-55
2023/06/05 11:24:28;;;;;;;2.30;1.20;;;;;;;26.46;22.35;101064.48;102566;278;98005;-54
2023/06/05 11:27:08;;;;;;;4.40;1.40;;;;;;;26.46;22.45;101058.03;102576;278;120920;-55
2023/06/05 11:29:54;;;;;;;3.00;1.50;;;;;;;26.44;22.55;101049.73;102524;278;106149;-54
2023/06/05 11:32:34;;;;;;;3.40;1.30;;;;;;;26.46;22.76;101049.63;102506;278;114232;-54
2023/06/05 11:35:11;;;;;;;2.90;1.20;;;;;;;26.36;22.68;101057.59;102525;278;93234;-57
2023/06/05 11:37:49;;;;;;;2.40;1.40;;;;;;;26.14;22.46;101051.48;102558;278;98369;-58
2023/06/05 11:40:29;;;;;;;2.20;1.10;;;;;;;26.05;22.78;101048.19;102517;278;120359;-54
2023/06/05 11:43:16;;;;;;;4.70;1.40;;;;;;;26.12;23.18;101043.23;102539;278;104217;-54
2023/06/05 11:46:01;;;;;;;2.70;1.40;;;;;;;26.09;22.94;101045.16;102465;278;114693;-53
2023/06/05 11:48:56;;;;;;;5.20;1.50;;;;;;;26.11;23.00;101042.56;102515;278;94512;-58
2023/06/05 11:51:40;;;;;;;4.00;1.10;;;;;;;26.07;23.39;101042.72;102598;278;97013;-58
2023/06/05 11:54:30;;;;;;;3.60;2.00;;;;;;;26.15;23.08;101037.25;102566;278;121455;-56
2023/06/05 11:57:12;;;;;;;2.10;1.20;;;;;;;26.13;22.92;101038.25;102574;278;105650;-55
2023/06/05 11:59:54;;;;;;;5.50;2.10;;;;;;;26.11;23.00;101040.45;102618;278;113748;-55
2023/06/05 12:02:35;;;;;;;6.10;1.40;;;;;;;26.07;22.83;101032.18;102541;278;93216;-55
2023/06/05 12:05:23;;;;;;;4.10;1.40;;;;;;;26.07;23.01;101037.45;102579;278;97471;-59
2023/06/05 12:08:21;;;;;;;2.80;1.20;;;;;;;26.02;22.70;101035.46;102589;278;121493;-59
2023/06/05 12:11:06;;;;;;;4.20;1.40;;;;;;;25.86;22.48;101032.77;102540;278;103581;-59
2023/06/05 12:13:57;;;;;;;1.90;1.30;;;;;;;25.89;22.57;101029.12;102571;278;113872;-55
2023/06/05 12:16:44;;;;;;;5.30;2.90;;;;;;;25.90;22.68;101025.70;102572;278;94795;-55
2023/06/05 12:19:31;;;;;;;3.10;1.40;;;;;;;25.71;22.65;101027.16;102600;278;97613;-57
2023/06/05 12:22:12;;;;;;;9.10;3.70;;;;;;;25.63;22.73;101025.65;102556;278;121513;-58
2023/06/05 12:24:52;;;;;;;8.50;3.00;;;;;;;25.71;22.89;101019.69;102559;278;105882;-55
2023/06/05 12:27:46;;;;;;;3.40;1.80;;;;;;;25.73;22.81;101015.32;102528;278;114857;-55
2023/06/05 12:30:27;;;;;;;2.50;1.50;;;;;;;25.76;23.08;101007.20;102545;278;94009;-56
2023/06/05 12:33:19;;;;;;;3.30;1.40;;;;;;;25.81;23.07;101007.36;102513;278;97107;-55